createdAt,value
2022-08-28T00:03:30.392Z,95669.00
2022-08-28T00:08:37.221Z,95675.53
2022-08-28T00:13:44.883Z,95669.13
2022-08-28T00:19:10.931Z,95668.59
2022-08-28T00:24:16.901Z,95665.25
2022-08-28T00:29:22.823Z,95674.03
2022-08-28T00:34:33.297Z,95663.50
2022-08-28T00:39:41.181Z,95671.34
2022-08-28T00:45:07.729Z,95675.09
2022-08-28T00:50:18.916Z,95669.63
2022-08-28T00:55:28.288Z,95660.97
2022-08-28T01:00:38.361Z,95672.19
2022-08-28T01:06:01.601Z,95673.16
2022-08-28T01:11:08.975Z,95675.38
2022-08-28T01:16:15.368Z,95677.81
2022-08-28T01:22:17.394Z,95667.97
2022-08-28T01:27:23.508Z,95658.91
2022-08-28T01:32:44.106Z,95667.28
2022-08-28T01:37:49.251Z,95664.84
2022-08-28T01:42:54.275Z,95662.97
2022-08-28T01:48:02.403Z,95659.34
2022-08-28T01:53:33.078Z,95661.50
2022-08-28T01:58:38.556Z,95653.88
2022-08-28T02:03:44.092Z,95658.59
2022-08-28T02:08:49.490Z,95650.47
2022-08-28T02:13:56.395Z,95654.75
2022-08-28T02:19:20.443Z,95664.84
2022-08-28T02:24:26.621Z,95664.50
2022-08-28T02:29:30.584Z,95670.19
2022-08-28T02:34:36.715Z,95673.41
2022-08-28T02:39:43.241Z,95669.31
2022-08-28T02:44:48.762Z,95673.53
2022-08-28T02:49:54.011Z,95672.06
2022-08-28T02:54:57.791Z,95672.69
2022-08-28T03:00:02.679Z,95667.63
2022-08-28T03:05:26.513Z,95668.75
2022-08-28T03:10:33.622Z,95668.41
2022-08-28T03:15:38.463Z,95664.06
2022-08-28T03:20:43.259Z,95661.41
2022-08-28T03:25:46.645Z,95659.22
2022-08-28T03:30:51.642Z,95661.88
2022-08-28T03:35:56.163Z,95660.19
2022-08-28T03:40:59.790Z,95662.38
2022-08-28T03:46:06.228Z,95659.09
2022-08-28T03:51:12.299Z,95667.06
2022-08-28T03:56:18.040Z,95659.09
2022-08-28T04:01:21.641Z,95667.94
2022-08-28T04:06:25.045Z,95665.75
2022-08-28T04:11:46.262Z,95670.13
2022-08-28T04:16:50.599Z,95672.22
2022-08-28T04:21:54.728Z,95664.94
2022-08-28T04:27:00.083Z,95671.41
2022-08-28T04:32:05.577Z,95670.47
2022-08-28T04:37:09.573Z,95677.09
2022-08-28T04:42:14.263Z,95678.28
2022-08-28T04:47:38.975Z,95678.28
2022-08-28T04:53:01.982Z,95677.25
2022-08-28T04:58:06.077Z,95687.69
2022-08-28T05:03:12.125Z,95692.78
2022-08-28T05:08:18.403Z,95700.34
2022-08-28T05:13:41.203Z,95695.06
2022-08-28T05:18:45.964Z,95704.13
2022-08-28T05:23:52.223Z,95702.25
2022-08-28T05:28:56.901Z,95715.63
2022-08-28T05:34:05.161Z,95721.63
2022-08-28T05:39:13.244Z,95721.28
2022-08-28T05:44:20.823Z,95717.34
2022-08-28T05:49:44.763Z,95734.81
2022-08-28T05:54:53.266Z,95728.13
2022-08-28T06:00:02.503Z,95731.94
2022-08-28T06:05:08.477Z,95741.38
2022-08-28T06:10:18.602Z,95745.56
2022-08-28T06:15:45.953Z,95744.59
2022-08-28T06:20:49.180Z,95747.34
2022-08-28T06:25:53.642Z,95746.75
2022-08-28T06:31:23.964Z,95746.06
2022-08-28T06:36:51.797Z,95753.72
2022-08-28T06:41:57.646Z,95756.00
2022-08-28T06:47:01.607Z,95765.16
2022-08-28T06:52:25.350Z,95761.66
2022-08-28T07:02:33.194Z,95774.03
2022-08-28T07:07:53.902Z,95779.25
2022-08-28T07:12:56.475Z,95778.31
2022-08-28T07:17:58.822Z,95782.88
2022-08-28T07:23:01.323Z,95772.50
2022-08-28T07:28:03.902Z,95773.13
2022-08-28T07:33:24.772Z,95782.03
2022-08-28T07:38:27.265Z,95785.75
2022-08-28T07:43:30.303Z,95791.47
2022-08-28T07:48:33.107Z,95784.06
2022-08-28T07:53:36.829Z,95783.06
2022-08-28T07:58:59.482Z,95793.22
2022-08-28T08:04:02.201Z,95795.91
2022-08-28T08:09:22.922Z,95806.00
2022-08-28T08:14:25.570Z,95801.06
2022-08-28T08:19:46.223Z,95791.38
2022-08-28T08:24:48.442Z,95810.34
2022-08-28T08:29:50.892Z,95804.97
2022-08-28T08:34:55.971Z,95814.09
2022-08-28T08:40:16.777Z,95817.72
2022-08-28T08:45:40.372Z,95816.34
2022-08-28T08:50:42.851Z,95821.34
2022-08-28T08:55:54.702Z,95816.66
2022-08-28T09:01:17.506Z,95814.56
2022-08-28T09:06:57.062Z,95817.00
2022-08-28T09:12:03.382Z,95824.84
2022-08-28T09:17:31.912Z,95825.56
2022-08-28T09:22:52.825Z,95828.28
2022-08-28T09:27:55.484Z,95826.66
2022-08-28T09:32:59.964Z,95826.44
2022-08-28T09:38:27.688Z,95829.59
2022-08-28T09:43:48.463Z,95822.84
2022-08-28T09:48:51.964Z,95832.78
2022-08-28T09:53:54.163Z,95834.06
2022-08-28T09:59:16.498Z,95830.75
2022-08-28T10:04:56.444Z,95845.72
2022-08-28T10:10:21.363Z,95839.56
2022-08-28T10:15:44.246Z,95831.56
2022-08-28T10:21:53.464Z,95831.19
2022-08-28T10:27:38.552Z,95828.94
2022-08-28T10:33:05.250Z,95832.03
2022-08-28T10:38:12.891Z,95833.22
2022-08-28T10:43:57.382Z,95837.63
2022-08-28T10:49:04.375Z,95833.22
2022-08-28T10:54:47.702Z,95845.59
2022-08-28T11:00:18.564Z,95838.13
2022-08-28T11:05:29.503Z,95839.69
2022-08-28T11:10:35.343Z,95844.78
2022-08-28T11:15:56.202Z,95836.88
2022-08-28T11:21:35.407Z,95842.38
2022-08-28T11:26:49.383Z,95839.22
2022-08-28T11:32:33.504Z,95844.88
2022-08-28T11:37:43.043Z,95849.19
2022-08-28T11:42:47.983Z,95849.50
2022-08-28T11:48:29.578Z,95845.19
2022-08-28T11:53:56.584Z,95849.63
2022-08-28T11:59:40.278Z,95849.53
2022-08-28T12:05:01.560Z,95840.09
2022-08-28T12:10:27.644Z,95850.69
2022-08-28T12:16:04.884Z,95842.97
2022-08-28T12:21:29.003Z,95839.25
2022-08-28T12:26:57.120Z,95840.44
2022-08-28T12:32:20.524Z,95837.78
2022-08-28T12:37:39.614Z,95835.28
2022-08-28T12:43:09.839Z,95829.19
2022-08-28T12:48:22.603Z,95834.09
2022-08-28T12:53:47.663Z,95822.47
2022-08-28T12:59:36.862Z,95820.25
2022-08-28T13:05:04.262Z,95823.13
2022-08-28T13:10:25.344Z,95812.59
2022-08-28T13:15:51.783Z,95814.88
2022-08-28T13:21:33.607Z,95803.97
2022-08-28T13:26:37.762Z,95818.75
2022-08-28T13:31:40.857Z,95812.97
2022-08-28T13:37:07.242Z,95812.22
2022-08-28T13:42:22.420Z,95807.44
2022-08-28T13:47:24.772Z,95792.69
2022-08-28T13:52:27.282Z,95798.03
2022-08-28T13:57:29.730Z,95790.25
2022-08-28T14:02:33.498Z,95790.44
2022-08-28T14:07:36.004Z,95790.31
2022-08-28T14:12:39.063Z,95787.25
2022-08-28T14:18:01.123Z,95786.81
2022-08-28T14:23:03.323Z,95779.34
2022-08-28T14:28:06.250Z,95781.84
2022-08-28T14:33:08.523Z,95778.16
2022-08-28T14:38:11.422Z,95782.44
2022-08-28T14:43:14.997Z,95772.34
2022-08-28T14:48:19.142Z,95783.28
2022-08-28T14:53:21.443Z,95783.88
2022-08-28T14:58:24.053Z,95767.03
2022-08-28T15:03:27.566Z,95767.97
2022-08-28T15:08:30.228Z,95763.59
2022-08-28T15:13:54.241Z,95762.47
2022-08-28T15:19:17.302Z,95763.78
2022-08-28T15:24:37.974Z,95760.41
2022-08-28T15:29:40.343Z,95757.53
2022-08-28T15:35:01.035Z,95747.94
2022-08-28T15:40:03.917Z,95755.78
2022-08-28T15:45:06.988Z,95754.75
2022-08-28T15:50:11.296Z,95747.44
2022-08-28T15:55:32.782Z,95742.31
2022-08-28T16:00:35.203Z,95735.56
2022-08-28T16:05:56.225Z,95742.53
2022-08-28T16:10:58.984Z,95737.38
2022-08-28T16:16:02.658Z,95744.16
2022-08-28T16:21:05.411Z,95740.84
2022-08-28T16:26:09.091Z,95737.97
2022-08-28T16:31:30.342Z,95751.06
2022-08-28T16:36:51.290Z,95746.97
2022-08-28T16:42:12.187Z,95757.09
2022-08-28T16:47:15.181Z,95748.31
2022-08-28T16:52:17.825Z,95756.31
2022-08-28T16:57:39.283Z,95747.94
2022-08-28T17:02:42.951Z,95748.53
2022-08-28T17:07:46.724Z,95740.69
2022-08-28T17:13:07.464Z,95726.44
2022-08-28T17:18:10.684Z,95739.84
2022-08-28T17:23:13.984Z,95744.03
2022-08-28T17:28:16.235Z,95746.78
2022-08-28T17:33:19.063Z,95744.03
2022-08-28T17:38:40.342Z,95747.72
2022-08-28T17:43:44.178Z,95745.00
2022-08-28T17:49:08.678Z,95748.75
2022-08-28T17:54:19.096Z,95753.94
2022-08-28T17:59:24.204Z,95760.66
2022-08-28T18:04:27.921Z,95760.03
2022-08-28T18:09:33.582Z,95764.50
2022-08-28T18:14:39.523Z,95760.41
2022-08-28T18:20:03.884Z,95772.84
2022-08-28T18:25:27.491Z,95776.59
2022-08-28T18:30:32.942Z,95778.81
2022-08-28T18:35:44.079Z,95784.81
2022-08-28T18:41:09.323Z,95791.13
2022-08-28T18:46:14.854Z,95792.84
2022-08-28T18:51:21.603Z,95797.69
2022-08-28T18:56:30.318Z,95809.56
2022-08-28T19:01:38.976Z,95812.72
2022-08-28T19:06:46.684Z,95823.00
2022-08-28T19:11:53.563Z,95833.00
2022-08-28T19:17:21.110Z,95832.91
2022-08-28T19:22:25.131Z,95832.72
2022-08-28T19:27:32.302Z,95843.34
2022-08-28T19:32:35.203Z,95846.91
2022-08-28T19:37:42.077Z,95843.69
2022-08-28T19:42:44.773Z,95844.50
2022-08-28T19:47:47.366Z,95854.53
2022-08-28T19:52:49.507Z,95872.28
2022-08-28T19:57:52.203Z,95872.28
2022-08-28T20:03:12.885Z,95872.44
2022-08-28T20:08:19.625Z,95887.38
2022-08-28T20:13:21.986Z,95889.69
2022-08-28T20:18:42.764Z,95888.59
2022-08-28T20:23:45.342Z,95893.16
2022-08-28T20:28:48.027Z,95896.25
2022-08-28T20:34:11.234Z,95895.28
2022-08-28T20:39:14.566Z,95893.13
2022-08-28T20:44:35.782Z,95901.03
2022-08-28T20:49:56.423Z,95900.03
2022-08-28T20:54:58.621Z,95899.03
2022-08-28T21:00:05.346Z,95897.75
2022-08-28T21:05:08.588Z,95898.72
2022-08-28T21:10:29.563Z,95897.47
2022-08-28T21:15:31.825Z,95890.09
2022-08-28T21:20:34.371Z,95885.97
2022-08-28T21:25:55.284Z,95896.31
2022-08-28T21:30:57.420Z,95895.47
2022-08-28T21:35:59.603Z,95901.66
2022-08-28T21:41:20.483Z,95904.56
2022-08-28T21:46:23.225Z,95903.94
2022-08-28T21:51:43.983Z,95899.81
2022-08-28T21:56:46.224Z,95909.84
2022-08-28T22:01:48.465Z,95911.25
2022-08-28T22:07:09.383Z,95907.72
2022-08-28T22:12:31.080Z,95908.28
2022-08-28T22:17:35.222Z,95911.22
2022-08-28T22:22:55.962Z,95917.66
2022-08-28T22:27:58.563Z,95920.72
2022-08-28T22:33:19.264Z,95914.13
2022-08-28T22:38:22.951Z,95920.03
2022-08-28T22:43:25.343Z,95930.66
2022-08-28T22:48:45.812Z,95933.41
2022-08-28T22:54:06.703Z,95939.16
2022-08-28T22:59:10.103Z,95938.78
2022-08-28T23:04:30.882Z,95937.50
2022-08-28T23:09:32.942Z,95927.38
2022-08-28T23:14:56.543Z,95927.69
2022-08-28T23:19:58.775Z,95936.66
2022-08-28T23:25:01.105Z,95937.44
2022-08-28T23:30:23.523Z,95933.38
2022-08-28T23:35:26.265Z,95931.78
2022-08-28T23:40:28.411Z,95911.25
2022-08-28T23:45:32.341Z,95920.41
2022-08-28T23:50:53.622Z,95911.50
2022-08-28T23:56:14.384Z,95913.66
